createdAt,value
2017-10-05T00:01:15.324Z,12.80
2017-10-05T00:03:42.903Z,12.80
2017-10-05T00:06:10.509Z,12.80
2017-10-05T00:08:38.176Z,12.80
2017-10-05T00:11:05.773Z,12.70
2017-10-05T00:13:33.381Z,12.70
2017-10-05T00:16:01.734Z,12.70
2017-10-05T00:18:30.086Z,12.70
2017-10-05T00:20:57.666Z,12.70
2017-10-05T00:23:25.264Z,12.70
2017-10-05T00:25:52.853Z,12.70
2017-10-05T00:28:21.294Z,12.60
2017-10-05T00:30:48.915Z,12.60
2017-10-05T00:33:16.487Z,12.60
2017-10-05T00:35:44.078Z,12.60
2017-10-05T00:38:11.636Z,12.60
2017-10-05T00:40:39.287Z,12.60
2017-10-05T00:43:06.851Z,12.60
2017-10-05T00:45:34.465Z,12.60
2017-10-05T00:48:02.048Z,12.60
2017-10-05T00:50:30.367Z,12.60
2017-10-05T00:52:57.964Z,12.60
2017-10-05T00:55:25.572Z,12.60
2017-10-05T00:57:53.196Z,12.50
2017-10-05T01:00:20.770Z,12.60
2017-10-05T01:02:48.371Z,12.60
2017-10-05T01:05:15.929Z,12.60
2017-10-05T01:07:43.505Z,12.60
2017-10-05T01:10:11.119Z,12.60
2017-10-05T01:12:38.686Z,12.60
2017-10-05T01:15:06.279Z,12.60
2017-10-05T01:17:33.881Z,12.50
2017-10-05T01:20:01.455Z,12.50
2017-10-05T01:22:29.033Z,12.50
2017-10-05T01:24:56.612Z,12.60
2017-10-05T01:27:25.230Z,12.60
2017-10-05T01:29:52.829Z,12.60
2017-10-05T01:32:20.389Z,12.60
2017-10-05T01:34:47.986Z,12.60
2017-10-05T01:37:15.589Z,12.60
2017-10-05T01:39:43.191Z,12.60
2017-10-05T01:42:10.749Z,12.60
2017-10-05T01:44:38.310Z,12.60
2017-10-05T01:47:05.917Z,12.60
2017-10-05T01:49:34.269Z,12.60
2017-10-05T01:52:01.878Z,12.60
2017-10-05T01:54:30.193Z,12.60
2017-10-05T01:56:57.766Z,12.60
2017-10-05T01:59:25.354Z,12.60
2017-10-05T02:01:52.940Z,12.70
2017-10-05T02:04:21.458Z,12.70
2017-10-05T02:06:49.048Z,12.70
2017-10-05T02:09:16.633Z,12.70
2017-10-05T02:11:44.264Z,12.70
2017-10-05T02:14:11.850Z,12.70
2017-10-05T02:16:39.469Z,12.70
2017-10-05T02:19:07.054Z,12.70
2017-10-05T02:21:34.619Z,12.70
2017-10-05T02:24:02.217Z,12.70
2017-10-05T02:26:29.786Z,12.70
2017-10-05T02:28:57.390Z,12.70
2017-10-05T02:31:25.007Z,12.60
2017-10-05T02:33:54.128Z,12.50
2017-10-05T02:36:21.781Z,12.50
2017-10-05T02:38:49.843Z,12.50
2017-10-05T02:41:17.442Z,12.40
2017-10-05T02:43:45.795Z,12.40
2017-10-05T02:46:13.363Z,12.40
2017-10-05T02:48:40.971Z,12.30
2017-10-05T02:51:08.538Z,12.30
2017-10-05T02:53:36.129Z,12.30
2017-10-05T02:56:03.694Z,12.20
2017-10-05T02:58:31.266Z,12.20
2017-10-05T03:00:58.840Z,12.20
2017-10-05T03:03:26.415Z,12.20
2017-10-05T03:05:54.011Z,12.10
2017-10-05T03:08:21.587Z,12.10
2017-10-05T03:10:49.174Z,12.20
2017-10-05T03:13:16.749Z,12.20
2017-10-05T03:15:44.319Z,12.20
2017-10-05T03:18:11.937Z,12.20
2017-10-05T03:20:39.527Z,12.20
2017-10-05T03:23:07.122Z,12.30
2017-10-05T03:25:34.709Z,12.30
2017-10-05T03:28:02.305Z,12.30
2017-10-05T03:30:29.912Z,12.30
2017-10-05T03:32:57.479Z,12.30
2017-10-05T03:35:25.036Z,12.20
2017-10-05T03:37:52.642Z,12.20
2017-10-05T03:40:20.969Z,12.20
2017-10-05T03:42:48.562Z,12.20
2017-10-05T03:45:16.154Z,12.20
2017-10-05T03:47:44.505Z,12.20
2017-10-05T03:50:12.099Z,12.20
2017-10-05T03:52:40.417Z,12.20
2017-10-05T03:55:08.016Z,12.10
2017-10-05T03:57:35.572Z,12.20
2017-10-05T04:00:03.128Z,12.20
2017-10-05T04:02:30.722Z,12.20
2017-10-05T04:04:58.288Z,12.20
2017-10-05T04:07:25.920Z,12.20
2017-10-05T04:09:53.509Z,12.20
2017-10-05T04:12:21.087Z,12.20
2017-10-05T04:14:49.453Z,12.20
2017-10-05T04:17:17.057Z,12.10
2017-10-05T04:19:44.672Z,12.20
2017-10-05T04:22:12.238Z,12.20
2017-10-05T04:24:39.842Z,12.20
2017-10-05T04:27:07.393Z,12.20
2017-10-05T04:29:35.734Z,12.20
2017-10-05T04:32:03.312Z,12.20
2017-10-05T04:34:30.879Z,12.20
2017-10-05T04:36:58.923Z,12.20
2017-10-05T04:39:26.486Z,12.20
2017-10-05T04:41:54.096Z,12.20
2017-10-05T04:44:22.500Z,12.20
2017-10-05T04:46:50.076Z,12.20
2017-10-05T04:49:17.882Z,12.20
2017-10-05T04:51:45.454Z,12.20
2017-10-05T04:54:13.034Z,12.10
2017-10-05T04:56:40.634Z,12.10
2017-10-05T04:59:08.223Z,12.10
2017-10-05T05:01:35.826Z,12.10
2017-10-05T05:04:03.395Z,12.10
2017-10-05T05:06:31.716Z,12.20
2017-10-05T05:08:59.315Z,12.10
2017-10-05T05:11:26.889Z,12.20
2017-10-05T05:13:54.515Z,12.20
2017-10-05T05:16:22.111Z,12.20
2017-10-05T05:18:49.665Z,12.20
2017-10-05T05:21:17.258Z,12.10
2017-10-05T05:23:45.599Z,12.20
2017-10-05T05:26:13.203Z,12.20
2017-10-05T05:28:40.789Z,12.20
2017-10-05T05:31:09.128Z,12.20
2017-10-05T05:33:36.708Z,12.20
2017-10-05T05:36:04.287Z,12.20
2017-10-05T05:38:33.390Z,12.20
2017-10-05T05:41:01.786Z,12.20
2017-10-05T05:43:29.899Z,12.20
2017-10-05T05:45:57.496Z,12.20
2017-10-05T05:48:25.071Z,12.20
2017-10-05T05:50:53.442Z,12.20
2017-10-05T05:53:21.015Z,12.30
2017-10-05T05:55:49.413Z,12.30
2017-10-05T05:58:17.755Z,12.20
2017-10-05T06:00:45.320Z,12.20
2017-10-05T06:03:12.929Z,12.30
2017-10-05T06:05:40.484Z,12.30
2017-10-05T06:08:10.475Z,12.40
2017-10-05T06:10:38.829Z,12.40
2017-10-05T06:13:06.470Z,12.30
2017-10-05T06:15:37.065Z,12.40
2017-10-05T06:18:06.154Z,12.40
2017-10-05T06:20:33.787Z,12.40
2017-10-05T06:23:01.366Z,12.40
2017-10-05T06:25:33.123Z,12.40
2017-10-05T06:28:00.805Z,12.40
2017-10-05T06:30:28.382Z,12.50
2017-10-05T06:32:55.987Z,12.50
2017-10-05T06:35:23.604Z,12.40
2017-10-05T06:37:51.219Z,12.50
2017-10-05T06:40:18.800Z,12.50
2017-10-05T06:42:46.375Z,12.50
2017-10-05T06:45:14.019Z,12.50
2017-10-05T06:47:41.595Z,12.50
2017-10-05T06:50:09.171Z,12.50
2017-10-05T06:52:36.774Z,12.50
2017-10-05T06:55:05.097Z,12.50
2017-10-05T06:57:32.694Z,12.50
2017-10-05T07:00:00.258Z,12.50
2017-10-05T07:02:27.828Z,12.50
2017-10-05T07:04:55.424Z,12.60
2017-10-05T07:07:24.100Z,12.60
2017-10-05T07:09:52.483Z,12.60
2017-10-05T07:12:20.861Z,12.60
2017-10-05T07:14:49.217Z,12.60
2017-10-05T07:17:16.845Z,12.60
2017-10-05T07:19:44.422Z,12.60
2017-10-05T07:22:12.090Z,12.70
2017-10-05T07:24:39.662Z,12.70
2017-10-05T07:27:07.248Z,12.70
2017-10-05T07:29:34.845Z,12.70
2017-10-05T07:32:03.181Z,12.70
2017-10-05T07:34:30.782Z,12.70
2017-10-05T07:36:59.187Z,12.80
2017-10-05T07:39:26.752Z,12.80
2017-10-05T07:41:54.369Z,12.80
2017-10-05T07:44:21.948Z,12.80
2017-10-05T07:46:49.550Z,12.80
2017-10-05T07:49:17.105Z,12.90
2017-10-05T07:51:44.682Z,12.90
2017-10-05T07:54:12.278Z,12.90
2017-10-05T07:56:39.859Z,13.00
2017-10-05T07:59:07.491Z,13.00
2017-10-05T08:01:35.054Z,13.00
2017-10-05T08:04:02.640Z,13.10
2017-10-05T08:06:30.228Z,13.10
2017-10-05T08:08:57.813Z,13.10
2017-10-05T08:11:26.165Z,13.20
2017-10-05T08:13:53.735Z,13.20
2017-10-05T08:16:21.316Z,13.20
2017-10-05T08:18:49.692Z,13.40
2017-10-05T08:21:18.687Z,13.40
2017-10-05T08:23:47.041Z,13.40
2017-10-05T08:26:14.627Z,13.40
2017-10-05T08:28:42.954Z,13.50
2017-10-05T08:31:10.559Z,13.50
2017-10-05T08:33:38.143Z,13.50
2017-10-05T08:36:06.533Z,13.60
2017-10-05T08:38:34.885Z,13.70
2017-10-05T08:41:02.449Z,13.60
2017-10-05T08:43:30.043Z,13.70
2017-10-05T08:45:58.386Z,13.80
2017-10-05T08:48:25.980Z,13.80
2017-10-05T08:50:53.776Z,13.80
2017-10-05T08:53:21.374Z,13.90
2017-10-05T08:55:48.982Z,13.90
2017-10-05T08:58:17.503Z,13.90
2017-10-05T09:00:45.106Z,13.90
2017-10-05T09:03:12.683Z,13.90
2017-10-05T09:05:40.268Z,13.90
2017-10-05T09:08:08.620Z,13.90
2017-10-05T09:10:36.177Z,13.90
2017-10-05T09:13:03.790Z,13.90
2017-10-05T09:15:31.476Z,14.00
2017-10-05T09:17:59.039Z,14.10
2017-10-05T09:20:26.656Z,14.10
2017-10-05T09:22:54.240Z,14.20
2017-10-05T09:25:22.622Z,14.20
2017-10-05T09:27:51.040Z,14.20
2017-10-05T09:30:18.612Z,14.20
2017-10-05T09:32:46.192Z,14.20
2017-10-05T09:35:13.762Z,14.20
2017-10-05T09:37:41.409Z,14.30
2017-10-05T09:40:09.010Z,14.40
2017-10-05T09:42:37.356Z,14.50
2017-10-05T09:45:04.948Z,14.50
2017-10-05T09:47:34.106Z,14.50
2017-10-05T09:50:01.672Z,14.50
2017-10-05T09:52:29.273Z,14.50
2017-10-05T09:54:58.379Z,14.60
2017-10-05T09:57:26.064Z,14.60
2017-10-05T09:59:54.480Z,14.80
2017-10-05T10:02:22.284Z,14.80
2017-10-05T10:04:49.905Z,14.80
2017-10-05T10:07:17.537Z,14.80
2017-10-05T10:09:45.905Z,14.80
2017-10-05T10:12:13.491Z,14.80
2017-10-05T10:14:41.835Z,14.90
2017-10-05T10:17:09.436Z,14.90
2017-10-05T10:19:37.845Z,15.10
2017-10-05T10:22:05.433Z,15.10
2017-10-05T10:24:33.037Z,15.50
2017-10-05T10:27:00.649Z,16.10
2017-10-05T10:29:28.315Z,16.60
2017-10-05T10:31:55.906Z,17.10
2017-10-05T10:34:23.460Z,17.80
2017-10-05T10:36:51.069Z,18.70
2017-10-05T10:39:19.419Z,19.50
2017-10-05T10:41:47.008Z,19.50
2017-10-05T10:44:15.350Z,19.80
2017-10-05T10:46:42.950Z,19.80
2017-10-05T10:49:10.841Z,19.70
2017-10-05T10:51:39.254Z,19.00
2017-10-05T10:54:06.879Z,18.90
2017-10-05T10:56:35.204Z,18.10
2017-10-05T10:59:03.282Z,18.10
2017-10-05T11:01:31.058Z,17.60
2017-10-05T11:03:58.672Z,17.50
2017-10-05T11:06:27.042Z,17.40
2017-10-05T11:08:54.659Z,17.40
2017-10-05T11:11:22.219Z,17.20
2017-10-05T11:13:49.928Z,17.00
2017-10-05T11:16:17.502Z,16.90
2017-10-05T11:18:45.092Z,16.80
2017-10-05T11:21:12.702Z,16.70
2017-10-05T11:23:40.299Z,16.90
2017-10-05T11:26:08.693Z,17.10
2017-10-05T11:28:37.025Z,17.20
2017-10-05T11:31:05.861Z,17.10
2017-10-05T11:33:34.204Z,17.20
2017-10-05T11:36:01.852Z,17.10
2017-10-05T11:38:29.452Z,17.20
2017-10-05T11:40:57.043Z,17.30
2017-10-05T11:43:25.390Z,17.10
2017-10-05T11:45:53.029Z,17.10
2017-10-05T11:48:20.619Z,17.30
2017-10-05T11:50:48.222Z,17.70
2017-10-05T11:53:16.558Z,18.50
2017-10-05T11:55:44.151Z,18.50
2017-10-05T11:58:11.779Z,18.80
2017-10-05T12:00:39.328Z,18.90
2017-10-05T12:03:06.886Z,19.00
2017-10-05T12:05:34.476Z,18.90
2017-10-05T12:08:02.061Z,18.30
2017-10-05T12:10:29.706Z,17.70
2017-10-05T12:12:57.340Z,17.10
2017-10-05T12:15:25.530Z,16.40
2017-10-05T12:17:53.165Z,16.00
2017-10-05T12:20:21.840Z,16.10
2017-10-05T12:22:50.416Z,16.60
2017-10-05T12:25:17.988Z,16.60
2017-10-05T12:27:46.352Z,18.30
2017-10-05T12:30:13.938Z,18.30
2017-10-05T12:32:42.284Z,19.80
2017-10-05T12:35:09.857Z,19.80
2017-10-05T12:37:37.526Z,19.60
2017-10-05T12:40:05.655Z,19.80
2017-10-05T12:42:33.258Z,19.50
2017-10-05T12:45:00.841Z,19.50
2017-10-05T12:47:28.436Z,19.20
2017-10-05T12:49:56.029Z,18.70
2017-10-05T12:52:23.600Z,18.00
2017-10-05T12:54:51.185Z,17.40
2017-10-05T12:57:18.771Z,17.00
2017-10-05T12:59:46.393Z,16.60
2017-10-05T13:02:13.956Z,16.40
2017-10-05T13:04:41.523Z,16.30
2017-10-05T13:07:09.148Z,16.10
2017-10-05T13:09:37.515Z,16.10
2017-10-05T13:12:06.827Z,16.10
2017-10-05T13:14:35.423Z,16.10
2017-10-05T13:17:03.850Z,16.10
2017-10-05T13:19:31.457Z,16.10
2017-10-05T13:21:59.062Z,16.10
2017-10-05T13:24:26.669Z,16.10
2017-10-05T13:26:54.250Z,16.10
2017-10-05T13:29:22.624Z,16.30
2017-10-05T13:31:50.191Z,16.20
2017-10-05T13:34:18.526Z,16.20
2017-10-05T13:36:46.117Z,16.20
2017-10-05T13:39:13.683Z,16.10
2017-10-05T13:41:41.418Z,16.10
2017-10-05T13:44:08.978Z,16.00
2017-10-05T13:46:36.586Z,16.00
2017-10-05T13:49:04.201Z,15.90
2017-10-05T13:51:31.779Z,15.90
2017-10-05T13:53:59.430Z,16.00
2017-10-05T13:56:27.024Z,16.00
2017-10-05T13:58:54.612Z,16.00
2017-10-05T14:01:22.243Z,16.00
2017-10-05T14:03:49.816Z,15.90
2017-10-05T14:06:17.391Z,15.80
2017-10-05T14:08:44.982Z,15.60
2017-10-05T14:11:13.311Z,15.60
2017-10-05T14:13:40.918Z,15.60
2017-10-05T14:16:08.537Z,15.60
2017-10-05T14:18:36.112Z,15.60
2017-10-05T14:21:03.697Z,15.60
2017-10-05T14:23:31.309Z,15.50
2017-10-05T14:25:58.888Z,15.40
2017-10-05T14:28:26.469Z,15.40
2017-10-05T14:30:54.067Z,15.40
2017-10-05T14:33:21.666Z,15.40
2017-10-05T14:35:49.274Z,15.30
2017-10-05T14:38:16.853Z,15.20
2017-10-05T14:40:45.211Z,15.10
2017-10-05T14:43:12.779Z,15.00
2017-10-05T14:45:40.328Z,15.00
2017-10-05T14:48:07.938Z,15.00
2017-10-05T14:50:36.275Z,15.00
2017-10-05T14:53:03.848Z,15.00
2017-10-05T14:55:32.142Z,15.00
2017-10-05T14:57:59.813Z,15.00
2017-10-05T15:00:27.419Z,15.10
2017-10-05T15:02:55.855Z,15.00
2017-10-05T15:05:23.718Z,15.00
2017-10-05T15:07:51.337Z,15.00
2017-10-05T15:10:19.674Z,15.00
2017-10-05T15:12:47.417Z,15.00
2017-10-05T15:15:14.981Z,15.10
2017-10-05T15:17:42.559Z,15.10
2017-10-05T15:20:10.311Z,15.10
2017-10-05T15:22:37.864Z,15.10
2017-10-05T15:25:05.435Z,15.10
2017-10-05T15:27:33.036Z,15.10
2017-10-05T15:30:01.538Z,15.00
2017-10-05T15:32:29.129Z,14.90
2017-10-05T15:34:57.684Z,14.90
2017-10-05T15:37:25.267Z,14.80
2017-10-05T15:39:53.610Z,14.70
2017-10-05T15:42:21.238Z,14.60
2017-10-05T15:47:39.529Z,14.40
2017-10-05T15:50:07.096Z,14.50
2017-10-05T15:52:34.695Z,14.60
2017-10-05T15:55:03.127Z,14.50
2017-10-05T15:57:30.756Z,14.50
2017-10-05T15:59:58.373Z,14.40
2017-10-05T16:02:25.963Z,14.30
2017-10-05T16:04:53.923Z,14.20
2017-10-05T16:07:21.508Z,14.10
2017-10-05T16:09:49.905Z,14.00
2017-10-05T16:12:17.489Z,14.00
2017-10-05T16:14:45.068Z,13.90
2017-10-05T16:17:12.741Z,13.90
2017-10-05T16:19:40.293Z,13.80
2017-10-05T16:22:07.899Z,13.60
2017-10-05T16:24:35.546Z,13.60
2017-10-05T16:27:03.132Z,13.50
2017-10-05T16:29:30.862Z,13.40
2017-10-05T16:31:58.469Z,13.40
2017-10-05T16:34:26.834Z,13.30
2017-10-05T16:36:54.532Z,13.30
2017-10-05T16:39:22.931Z,13.20
2017-10-05T16:41:50.620Z,13.20
2017-10-05T16:44:18.280Z,13.20
2017-10-05T16:46:45.848Z,13.20
2017-10-05T16:49:13.435Z,13.20
2017-10-05T16:51:41.082Z,13.10
2017-10-05T16:54:08.666Z,13.10
2017-10-05T16:56:36.314Z,13.10
2017-10-05T16:59:04.682Z,13.00
2017-10-05T17:01:32.259Z,13.00
2017-10-05T17:03:59.867Z,13.00
2017-10-05T17:06:28.295Z,12.90
2017-10-05T17:08:55.858Z,12.90
2017-10-05T17:11:24.578Z,12.90
2017-10-05T17:13:52.170Z,12.90
2017-10-05T17:16:20.629Z,12.80
2017-10-05T17:18:48.208Z,12.90
2017-10-05T17:21:15.779Z,12.80
2017-10-05T17:23:43.375Z,12.80
2017-10-05T17:26:10.951Z,12.80
2017-10-05T17:28:38.550Z,12.70
2017-10-05T17:31:25.938Z,12.80
2017-10-05T17:33:53.538Z,12.70
2017-10-05T17:36:21.135Z,12.70
2017-10-05T17:38:48.725Z,12.60
2017-10-05T17:41:16.318Z,12.60
2017-10-05T17:43:44.666Z,12.60
2017-10-05T17:46:12.501Z,12.60
2017-10-05T17:48:40.368Z,12.60
2017-10-05T17:51:08.237Z,12.50
2017-10-05T17:53:36.112Z,12.50
2017-10-05T17:56:04.694Z,12.50
2017-10-05T17:58:32.326Z,12.40
2017-10-05T18:01:00.847Z,12.40
2017-10-05T18:03:28.717Z,12.40
2017-10-05T18:05:56.594Z,12.40
2017-10-05T18:08:24.187Z,12.40
2017-10-05T18:10:51.778Z,12.30
2017-10-05T18:13:20.125Z,12.40
2017-10-05T18:15:47.700Z,12.30
2017-10-05T18:18:15.534Z,12.30
2017-10-05T18:20:43.202Z,12.30
2017-10-05T18:23:11.748Z,12.30
2017-10-05T18:25:40.271Z,12.30
2017-10-05T18:28:08.141Z,12.30
2017-10-05T18:30:36.113Z,12.30
2017-10-05T18:33:04.714Z,12.40
2017-10-05T18:35:32.572Z,12.40
2017-10-05T18:38:00.444Z,12.40
2017-10-05T18:40:28.314Z,12.40
2017-10-05T18:42:56.181Z,12.40
2017-10-05T18:45:24.160Z,12.40
2017-10-05T18:47:52.028Z,12.40
2017-10-05T18:50:19.899Z,12.30
2017-10-05T18:52:47.780Z,12.40
2017-10-05T18:55:15.743Z,12.40
2017-10-05T18:57:43.612Z,12.40
2017-10-05T19:00:11.584Z,12.30
2017-10-05T19:02:39.731Z,12.30
2017-10-05T19:05:07.737Z,12.30
2017-10-05T19:07:35.707Z,12.40
2017-10-05T19:10:03.580Z,12.40
2017-10-05T19:12:31.554Z,12.30
2017-10-05T19:14:59.806Z,12.30
2017-10-05T19:17:28.627Z,12.20
2017-10-05T19:19:57.314Z,12.20
2017-10-05T19:22:25.288Z,12.20
2017-10-05T19:24:53.158Z,12.20
2017-10-05T19:27:21.030Z,12.20
2017-10-05T19:29:48.900Z,12.10
2017-10-05T19:32:16.873Z,12.10
2017-10-05T19:34:44.744Z,12.10
2017-10-05T19:37:12.717Z,12.10
2017-10-05T19:39:41.080Z,12.10
2017-10-05T19:42:09.889Z,12.10
2017-10-05T19:44:38.069Z,12.10
2017-10-05T19:47:06.042Z,12.10
2017-10-05T19:49:34.219Z,12.10
2017-10-05T19:52:03.009Z,12.20
2017-10-05T19:54:31.084Z,12.20
2017-10-05T19:56:59.982Z,12.20
2017-10-05T19:59:28.699Z,12.20
2017-10-05T20:01:57.460Z,12.20
2017-10-05T20:04:25.331Z,12.10
2017-10-05T20:06:53.306Z,12.20
2017-10-05T20:09:21.484Z,12.20
2017-10-05T20:11:49.356Z,12.20
2017-10-05T20:17:22.854Z,12.10
2017-10-05T20:20:11.396Z,12.10
2017-10-05T20:25:57.459Z,12.00
2017-10-05T20:28:30.843Z,12.00
2017-10-05T20:31:11.976Z,11.90
2017-10-05T20:33:39.625Z,11.90
2017-10-05T20:36:07.253Z,11.90
2017-10-05T20:38:34.816Z,11.90
2017-10-05T20:41:03.154Z,11.80
2017-10-05T20:43:30.760Z,11.80
2017-10-05T20:45:58.373Z,11.80
2017-10-05T20:48:25.984Z,11.80
2017-10-05T20:50:54.323Z,11.80
2017-10-05T20:53:21.897Z,11.80
2017-10-05T20:55:49.537Z,11.70
2017-10-05T20:58:17.111Z,11.70
2017-10-05T21:00:44.710Z,11.70
2017-10-05T21:03:12.282Z,11.60
2017-10-05T21:05:40.617Z,11.60
2017-10-05T21:08:08.203Z,11.50
2017-10-05T21:10:35.840Z,11.50
2017-10-05T21:13:03.447Z,11.50
2017-10-05T21:15:31.015Z,11.50
2017-10-05T21:17:58.594Z,11.50
2017-10-05T21:20:26.954Z,11.40
2017-10-05T21:22:54.579Z,11.40
2017-10-05T21:25:22.165Z,11.40
2017-10-05T21:27:49.727Z,11.40
2017-10-05T21:30:17.373Z,11.30
2017-10-05T21:32:44.972Z,11.30
2017-10-05T21:35:12.552Z,11.30
2017-10-05T21:37:40.147Z,11.30
2017-10-05T21:40:07.705Z,11.30
2017-10-05T21:42:35.285Z,11.40
2017-10-05T21:45:02.894Z,11.40
2017-10-05T21:47:30.452Z,11.40
2017-10-05T21:49:58.015Z,11.40
2017-10-05T21:52:25.627Z,11.40
2017-10-05T21:54:53.194Z,11.40
2017-10-05T21:57:20.807Z,11.40
2017-10-05T21:59:48.454Z,11.30
2017-10-05T22:02:16.222Z,11.30
2017-10-05T22:04:44.007Z,11.30
2017-10-05T22:07:11.778Z,11.30
2017-10-05T22:09:39.426Z,11.30
2017-10-05T22:12:07.131Z,11.30
2017-10-05T22:14:34.879Z,11.30
2017-10-05T22:17:02.629Z,11.30
2017-10-05T22:19:30.314Z,11.20
2017-10-05T22:21:57.944Z,11.20
2017-10-05T22:24:25.729Z,11.20
2017-10-05T22:26:53.402Z,11.20
2017-10-05T22:29:21.164Z,11.10
2017-10-05T22:31:48.858Z,11.10
2017-10-05T22:34:16.492Z,11.10
2017-10-05T22:36:44.263Z,11.10
2017-10-05T22:39:12.032Z,11.10
2017-10-05T22:41:39.801Z,11.00
2017-10-05T22:44:07.424Z,11.00
2017-10-05T22:46:35.831Z,11.00
2017-10-05T22:49:03.618Z,11.00
2017-10-05T22:51:31.310Z,11.00
2017-10-05T22:53:59.053Z,11.00
2017-10-05T22:56:26.716Z,10.90
2017-10-05T22:58:54.473Z,10.90
2017-10-05T23:01:22.870Z,10.90
2017-10-05T23:03:51.328Z,10.90
2017-10-05T23:06:18.941Z,10.90
2017-10-05T23:08:47.826Z,10.90
2017-10-05T23:11:15.601Z,10.90
2017-10-05T23:13:43.263Z,10.90
2017-10-05T23:16:11.015Z,10.90
2017-10-05T23:18:38.679Z,10.90
2017-10-05T23:21:06.331Z,10.90
2017-10-05T23:23:34.116Z,11.00
2017-10-05T23:26:01.903Z,11.00
2017-10-05T23:28:29.547Z,11.00
2017-10-05T23:30:57.418Z,11.00
2017-10-05T23:33:25.106Z,11.00
2017-10-05T23:35:52.731Z,11.10
2017-10-05T23:38:20.449Z,11.10
2017-10-05T23:40:48.291Z,11.00
2017-10-05T23:43:15.970Z,11.00
2017-10-05T23:45:43.580Z,11.00
2017-10-05T23:48:12.007Z,10.90
2017-10-05T23:50:39.704Z,10.90
2017-10-05T23:53:08.462Z,10.90
2017-10-05T23:55:36.844Z,10.90
2017-10-05T23:58:04.530Z,10.90
